sensor_id;sensor_type;location;lat;lon;timestamp;P1;durP1;ratioP1;P2;durP2;ratioP2
55931;SDS011;41837;55.700;37.984;2022-09-13T00:00:09;9.05;;;6.28;;
55931;SDS011;41837;55.700;37.984;2022-09-13T00:02:36;9.18;;;6.05;;
55931;SDS011;41837;55.700;37.984;2022-09-13T00:05:02;10.38;;;5.63;;
55931;SDS011;41837;55.700;37.984;2022-09-13T00:07:29;10.07;;;5.53;;
55931;SDS011;41837;55.700;37.984;2022-09-13T00:09:54;8.63;;;5.95;;
55931;SDS011;41837;55.700;37.984;2022-09-13T00:12:21;8.23;;;6.00;;
55931;SDS011;41837;55.700;37.984;2022-09-13T00:14:47;9.88;;;6.35;;
55931;SDS011;41837;55.700;37.984;2022-09-13T00:17:13;12.77;;;5.93;;
55931;SDS011;41837;55.700;37.984;2022-09-13T00:19:39;10.35;;;6.00;;
55931;SDS011;41837;55.700;37.984;2022-09-13T00:22:05;9.88;;;6.43;;
55931;SDS011;41837;55.700;37.984;2022-09-13T00:24:31;13.77;;;6.50;;
55931;SDS011;41837;55.700;37.984;2022-09-13T00:26:59;12.20;;;6.47;;
55931;SDS011;41837;55.700;37.984;2022-09-13T00:29:25;9.88;;;6.40;;
55931;SDS011;41837;55.700;37.984;2022-09-13T00:31:52;11.82;;;6.32;;
55931;SDS011;41837;55.700;37.984;2022-09-13T00:34:20;11.00;;;6.80;;
55931;SDS011;41837;55.700;37.984;2022-09-13T00:36:46;11.05;;;6.53;;
55931;SDS011;41837;55.700;37.984;2022-09-13T00:39:12;11.18;;;6.10;;
55931;SDS011;41837;55.700;37.984;2022-09-13T00:41:38;9.95;;;6.55;;
55931;SDS011;41837;55.700;37.984;2022-09-13T00:44:04;17.83;;;6.35;;
55931;SDS011;41837;55.700;37.984;2022-09-13T00:46:44;11.63;;;6.93;;
55931;SDS011;41837;55.700;37.984;2022-09-13T00:49:20;9.82;;;6.68;;
55931;SDS011;41837;55.700;37.984;2022-09-13T00:51:55;15.93;;;6.75;;
55931;SDS011;41837;55.700;37.984;2022-09-13T00:54:23;14.85;;;7.07;;
55931;SDS011;41837;55.700;37.984;2022-09-13T00:56:51;11.32;;;6.68;;
55931;SDS011;41837;55.700;37.984;2022-09-13T00:59:24;14.35;;;6.75;;
55931;SDS011;41837;55.700;37.984;2022-09-13T01:01:52;11.52;;;6.85;;
55931;SDS011;41837;55.700;37.984;2022-09-13T01:04:19;10.60;;;7.40;;
55931;SDS011;41837;55.700;37.984;2022-09-13T01:06:47;20.23;;;7.18;;
55931;SDS011;41837;55.700;37.984;2022-09-13T01:09:13;11.32;;;6.95;;
55931;SDS011;41837;55.700;37.984;2022-09-13T01:11:47;13.23;;;6.65;;
55931;SDS011;41837;55.700;37.984;2022-09-13T01:14:18;11.45;;;6.55;;
55931;SDS011;41837;55.700;37.984;2022-09-13T01:16:45;14.05;;;6.18;;
55931;SDS011;41837;55.700;37.984;2022-09-13T01:19:11;11.60;;;6.10;;
55931;SDS011;41837;55.700;37.984;2022-09-13T01:29:42;15.43;;;7.10;;
55931;SDS011;41837;55.700;37.984;2022-09-13T01:48:35;16.50;;;8.32;;
55931;SDS011;41837;55.700;37.984;2022-09-13T01:51:08;13.95;;;8.10;;
55931;SDS011;41837;55.700;37.984;2022-09-13T01:53:51;20.50;;;9.27;;
55931;SDS011;41837;55.700;37.984;2022-09-13T01:56:26;14.32;;;7.72;;
55931;SDS011;41837;55.700;37.984;2022-09-13T01:58:58;20.05;;;8.85;;
55931;SDS011;41837;55.700;37.984;2022-09-13T02:01:28;14.57;;;8.88;;
55931;SDS011;41837;55.700;37.984;2022-09-13T02:03:59;17.58;;;8.80;;
55931;SDS011;41837;55.700;37.984;2022-09-13T02:06:29;17.13;;;8.57;;
55931;SDS011;41837;55.700;37.984;2022-09-13T02:08:59;17.73;;;9.02;;
55931;SDS011;41837;55.700;37.984;2022-09-13T02:11:26;16.15;;;9.13;;
55931;SDS011;41837;55.700;37.984;2022-09-13T02:13:59;12.60;;;8.57;;
55931;SDS011;41837;55.700;37.984;2022-09-13T02:16:30;16.80;;;9.48;;
55931;SDS011;41837;55.700;37.984;2022-09-13T02:18:58;15.93;;;9.00;;
55931;SDS011;41837;55.700;37.984;2022-09-13T02:21:28;21.00;;;10.02;;
55931;SDS011;41837;55.700;37.984;2022-09-13T02:24:02;14.80;;;9.15;;
55931;SDS011;41837;55.700;37.984;2022-09-13T02:26:30;17.75;;;9.23;;
55931;SDS011;41837;55.700;37.984;2022-09-13T02:28:59;16.90;;;9.82;;
55931;SDS011;41837;55.700;37.984;2022-09-13T02:31:32;17.52;;;9.85;;
55931;SDS011;41837;55.700;37.984;2022-09-13T02:34:00;21.33;;;10.85;;
55931;SDS011;41837;55.700;37.984;2022-09-13T02:36:32;14.82;;;9.57;;
55931;SDS011;41837;55.700;37.984;2022-09-13T02:39:00;19.20;;;8.68;;
55931;SDS011;41837;55.700;37.984;2022-09-13T02:41:29;15.45;;;8.98;;
55931;SDS011;41837;55.700;37.984;2022-09-13T02:44:24;16.38;;;9.55;;
55931;SDS011;41837;55.700;37.984;2022-09-13T02:51:54;12.93;;;8.82;;
55931;SDS011;41837;55.700;37.984;2022-09-13T02:56:50;12.93;;;8.50;;
55931;SDS011;41837;55.700;37.984;2022-09-13T02:59:18;13.80;;;8.40;;
55931;SDS011;41837;55.700;37.984;2022-09-13T03:02:07;17.10;;;9.15;;
55931;SDS011;41837;55.700;37.984;2022-09-13T03:04:31;18.35;;;9.18;;
55931;SDS011;41837;55.700;37.984;2022-09-13T03:06:57;15.65;;;9.15;;
55931;SDS011;41837;55.700;37.984;2022-09-13T03:09:23;18.58;;;9.68;;
55931;SDS011;41837;55.700;37.984;2022-09-13T03:28:11;18.48;;;9.68;;
55931;SDS011;41837;55.700;37.984;2022-09-13T03:30:41;14.13;;;8.80;;
55931;SDS011;41837;55.700;37.984;2022-09-13T03:38:55;15.00;;;8.50;;
55931;SDS011;41837;55.700;37.984;2022-09-13T03:41:26;13.23;;;8.13;;
55931;SDS011;41837;55.700;37.984;2022-09-13T03:43:55;16.67;;;8.50;;
55931;SDS011;41837;55.700;37.984;2022-09-13T03:46:26;14.32;;;8.00;;
55931;SDS011;41837;55.700;37.984;2022-09-13T03:48:54;14.05;;;8.23;;
55931;SDS011;41837;55.700;37.984;2022-09-13T03:51:21;11.65;;;8.00;;
55931;SDS011;41837;55.700;37.984;2022-09-13T03:53:49;10.68;;;7.60;;
55931;SDS011;41837;55.700;37.984;2022-09-13T03:56:18;10.93;;;7.22;;
55931;SDS011;41837;55.700;37.984;2022-09-13T03:58:45;13.07;;;6.90;;
55931;SDS011;41837;55.700;37.984;2022-09-13T04:01:11;12.40;;;7.40;;
55931;SDS011;41837;55.700;37.984;2022-09-13T04:03:37;14.82;;;7.35;;
55931;SDS011;41837;55.700;37.984;2022-09-13T04:06:04;15.90;;;7.47;;
55931;SDS011;41837;55.700;37.984;2022-09-13T04:08:30;12.10;;;7.45;;
55931;SDS011;41837;55.700;37.984;2022-09-13T04:10:57;10.73;;;7.10;;
55931;SDS011;41837;55.700;37.984;2022-09-13T04:13:23;11.13;;;7.22;;
55931;SDS011;41837;55.700;37.984;2022-09-13T04:15:49;14.43;;;6.75;;
55931;SDS011;41837;55.700;37.984;2022-09-13T04:18:15;15.63;;;6.90;;
55931;SDS011;41837;55.700;37.984;2022-09-13T04:20:42;13.15;;;7.20;;
55931;SDS011;41837;55.700;37.984;2022-09-13T04:23:07;14.05;;;6.88;;
55931;SDS011;41837;55.700;37.984;2022-09-13T04:25:36;12.18;;;6.28;;
55931;SDS011;41837;55.700;37.984;2022-09-13T04:28:02;9.50;;;6.30;;
55931;SDS011;41837;55.700;37.984;2022-09-13T04:30:29;13.20;;;6.32;;
55931;SDS011;41837;55.700;37.984;2022-09-13T04:32:55;10.82;;;6.70;;
55931;SDS011;41837;55.700;37.984;2022-09-13T04:35:24;11.82;;;6.28;;
55931;SDS011;41837;55.700;37.984;2022-09-13T04:37:50;13.98;;;6.35;;
55931;SDS011;41837;55.700;37.984;2022-09-13T04:40:15;16.45;;;7.10;;
55931;SDS011;41837;55.700;37.984;2022-09-13T04:42:44;15.65;;;7.22;;
55931;SDS011;41837;55.700;37.984;2022-09-13T04:45:10;19.77;;;8.48;;
55931;SDS011;41837;55.700;37.984;2022-09-13T04:47:36;13.75;;;7.30;;
55931;SDS011;41837;55.700;37.984;2022-09-13T04:50:02;15.68;;;7.85;;
55931;SDS011;41837;55.700;37.984;2022-09-13T04:52:29;12.05;;;7.60;;
55931;SDS011;41837;55.700;37.984;2022-09-13T04:54:55;13.13;;;7.85;;
55931;SDS011;41837;55.700;37.984;2022-09-13T04:57:24;12.73;;;7.50;;
55931;SDS011;41837;55.700;37.984;2022-09-13T04:59:54;9.80;;;7.35;;
55931;SDS011;41837;55.700;37.984;2022-09-13T05:02:20;12.65;;;7.45;;
55931;SDS011;41837;55.700;37.984;2022-09-13T05:04:46;13.30;;;7.82;;
55931;SDS011;41837;55.700;37.984;2022-09-13T05:07:12;9.60;;;6.85;;
55931;SDS011;41837;55.700;37.984;2022-09-13T05:09:39;20.85;;;8.05;;
55931;SDS011;41837;55.700;37.984;2022-09-13T05:12:05;11.82;;;7.88;;
55931;SDS011;41837;55.700;37.984;2022-09-13T05:14:31;17.17;;;7.22;;
55931;SDS011;41837;55.700;37.984;2022-09-13T05:16:56;12.55;;;7.57;;
55931;SDS011;41837;55.700;37.984;2022-09-13T05:19:22;13.65;;;7.13;;
55931;SDS011;41837;55.700;37.984;2022-09-13T05:21:48;22.17;;;7.55;;
55931;SDS011;41837;55.700;37.984;2022-09-13T05:24:14;13.40;;;7.03;;
55931;SDS011;41837;55.700;37.984;2022-09-13T05:26:40;15.77;;;7.57;;
55931;SDS011;41837;55.700;37.984;2022-09-13T05:29:06;10.32;;;7.57;;
55931;SDS011;41837;55.700;37.984;2022-09-13T05:31:33;11.73;;;7.35;;
55931;SDS011;41837;55.700;37.984;2022-09-13T05:34:07;14.30;;;7.53;;
55931;SDS011;41837;55.700;37.984;2022-09-13T05:36:35;12.48;;;8.00;;
55931;SDS011;41837;55.700;37.984;2022-09-13T05:39:01;11.57;;;7.20;;
55931;SDS011;41837;55.700;37.984;2022-09-13T05:41:27;10.88;;;7.10;;
55931;SDS011;41837;55.700;37.984;2022-09-13T05:43:53;11.95;;;8.10;;
55931;SDS011;41837;55.700;37.984;2022-09-13T05:46:19;14.32;;;7.30;;
55931;SDS011;41837;55.700;37.984;2022-09-13T05:48:45;12.63;;;7.75;;
55931;SDS011;41837;55.700;37.984;2022-09-13T05:51:13;14.25;;;8.80;;
55931;SDS011;41837;55.700;37.984;2022-09-13T05:53:40;14.75;;;7.93;;
55931;SDS011;41837;55.700;37.984;2022-09-13T05:56:07;10.50;;;7.50;;
55931;SDS011;41837;55.700;37.984;2022-09-13T05:58:33;23.63;;;7.82;;
55931;SDS011;41837;55.700;37.984;2022-09-13T06:01:00;12.32;;;7.63;;
55931;SDS011;41837;55.700;37.984;2022-09-13T06:03:26;13.50;;;6.82;;
55931;SDS011;41837;55.700;37.984;2022-09-13T06:05:56;10.65;;;6.88;;
55931;SDS011;41837;55.700;37.984;2022-09-13T06:08:24;12.43;;;7.10;;
55931;SDS011;41837;55.700;37.984;2022-09-13T06:10:58;12.27;;;7.10;;
55931;SDS011;41837;55.700;37.984;2022-09-13T06:13:25;16.00;;;6.78;;
55931;SDS011;41837;55.700;37.984;2022-09-13T06:15:51;15.50;;;7.22;;
55931;SDS011;41837;55.700;37.984;2022-09-13T06:18:17;18.83;;;6.90;;
55931;SDS011;41837;55.700;37.984;2022-09-13T06:20:44;10.48;;;6.75;;
55931;SDS011;41837;55.700;37.984;2022-09-13T06:23:10;13.05;;;6.75;;
55931;SDS011;41837;55.700;37.984;2022-09-13T06:25:36;20.27;;;7.88;;
55931;SDS011;41837;55.700;37.984;2022-09-13T06:28:02;13.43;;;7.03;;
55931;SDS011;41837;55.700;37.984;2022-09-13T06:30:28;22.60;;;7.65;;
55931;SDS011;41837;55.700;37.984;2022-09-13T06:32:55;10.20;;;6.75;;
55931;SDS011;41837;55.700;37.984;2022-09-13T06:35:21;17.15;;;7.82;;
55931;SDS011;41837;55.700;37.984;2022-09-13T06:37:47;14.25;;;7.95;;
55931;SDS011;41837;55.700;37.984;2022-09-13T06:40:12;13.95;;;7.28;;
55931;SDS011;41837;55.700;37.984;2022-09-13T06:42:39;10.07;;;7.45;;
55931;SDS011;41837;55.700;37.984;2022-09-13T06:45:05;12.90;;;8.38;;
55931;SDS011;41837;55.700;37.984;2022-09-13T06:47:31;12.77;;;7.88;;
55931;SDS011;41837;55.700;37.984;2022-09-13T06:49:57;16.30;;;7.25;;
55931;SDS011;41837;55.700;37.984;2022-09-13T06:52:23;15.55;;;6.90;;
55931;SDS011;41837;55.700;37.984;2022-09-13T06:54:49;9.85;;;6.70;;
55931;SDS011;41837;55.700;37.984;2022-09-13T06:57:16;14.57;;;7.53;;
55931;SDS011;41837;55.700;37.984;2022-09-13T06:59:42;17.30;;;7.20;;
55931;SDS011;41837;55.700;37.984;2022-09-13T07:02:09;16.38;;;6.10;;
55931;SDS011;41837;55.700;37.984;2022-09-13T07:04:34;14.35;;;6.30;;
55931;SDS011;41837;55.700;37.984;2022-09-13T07:07:01;15.27;;;6.50;;
55931;SDS011;41837;55.700;37.984;2022-09-13T07:09:27;14.18;;;6.72;;
55931;SDS011;41837;55.700;37.984;2022-09-13T07:11:54;11.32;;;5.55;;
55931;SDS011;41837;55.700;37.984;2022-09-13T07:14:21;10.77;;;6.55;;
55931;SDS011;41837;55.700;37.984;2022-09-13T07:16:48;10.38;;;6.38;;
55931;SDS011;41837;55.700;37.984;2022-09-13T07:19:17;12.23;;;6.00;;
55931;SDS011;41837;55.700;37.984;2022-09-13T07:21:43;8.68;;;5.90;;
55931;SDS011;41837;55.700;37.984;2022-09-13T07:24:09;11.68;;;6.20;;
55931;SDS011;41837;55.700;37.984;2022-09-13T07:26:36;17.05;;;6.30;;
55931;SDS011;41837;55.700;37.984;2022-09-13T07:29:06;12.55;;;5.82;;
55931;SDS011;41837;55.700;37.984;2022-09-13T07:31:43;15.02;;;5.97;;
55931;SDS011;41837;55.700;37.984;2022-09-13T07:34:14;14.98;;;7.03;;
55931;SDS011;41837;55.700;37.984;2022-09-13T07:36:40;15.07;;;7.80;;
55931;SDS011;41837;55.700;37.984;2022-09-13T07:39:07;19.58;;;11.88;;
55931;SDS011;41837;55.700;37.984;2022-09-13T07:41:33;11.35;;;7.40;;
55931;SDS011;41837;55.700;37.984;2022-09-13T07:44:00;13.40;;;6.90;;
55931;SDS011;41837;55.700;37.984;2022-09-13T07:46:27;15.82;;;7.03;;
55931;SDS011;41837;55.700;37.984;2022-09-13T07:48:57;18.63;;;6.47;;
55931;SDS011;41837;55.700;37.984;2022-09-13T07:51:24;9.77;;;5.43;;
55931;SDS011;41837;55.700;37.984;2022-09-13T07:53:51;11.48;;;6.20;;
55931;SDS011;41837;55.700;37.984;2022-09-13T07:56:21;14.52;;;5.03;;
55931;SDS011;41837;55.700;37.984;2022-09-13T07:58:48;18.02;;;4.47;;
55931;SDS011;41837;55.700;37.984;2022-09-13T08:01:18;11.02;;;3.63;;
55931;SDS011;41837;55.700;37.984;2022-09-13T08:03:49;18.02;;;3.65;;
55931;SDS011;41837;55.700;37.984;2022-09-13T08:06:16;9.45;;;3.38;;
55931;SDS011;41837;55.700;37.984;2022-09-13T08:08:42;11.13;;;3.20;;
55931;SDS011;41837;55.700;37.984;2022-09-13T08:11:09;14.48;;;3.55;;
55931;SDS011;41837;55.700;37.984;2022-09-13T08:13:39;16.98;;;3.40;;
55931;SDS011;41837;55.700;37.984;2022-09-13T08:16:05;11.55;;;3.30;;
55931;SDS011;41837;55.700;37.984;2022-09-13T08:18:31;6.00;;;2.92;;
55931;SDS011;41837;55.700;37.984;2022-09-13T08:20:58;5.15;;;2.28;;
55931;SDS011;41837;55.700;37.984;2022-09-13T08:23:25;6.85;;;2.10;;
55931;SDS011;41837;55.700;37.984;2022-09-13T08:25:51;9.20;;;2.70;;
55931;SDS011;41837;55.700;37.984;2022-09-13T08:28:18;5.47;;;2.28;;
55931;SDS011;41837;55.700;37.984;2022-09-13T08:30:46;6.85;;;2.08;;
55931;SDS011;41837;55.700;37.984;2022-09-13T08:33:13;4.20;;;2.10;;
55931;SDS011;41837;55.700;37.984;2022-09-13T08:35:40;6.68;;;2.10;;
55931;SDS011;41837;55.700;37.984;2022-09-13T08:38:06;10.40;;;2.10;;
55931;SDS011;41837;55.700;37.984;2022-09-13T08:40:37;8.25;;;2.30;;
55931;SDS011;41837;55.700;37.984;2022-09-13T08:43:20;4.75;;;2.08;;
55931;SDS011;41837;55.700;37.984;2022-09-13T08:45:50;3.80;;;2.00;;
55931;SDS011;41837;55.700;37.984;2022-09-13T08:48:20;3.45;;;1.70;;
55931;SDS011;41837;55.700;37.984;2022-09-13T08:50:58;4.03;;;2.25;;
55931;SDS011;41837;55.700;37.984;2022-09-13T08:53:28;3.80;;;2.53;;
55931;SDS011;41837;55.700;37.984;2022-09-13T09:05:58;6.78;;;2.05;;
55931;SDS011;41837;55.700;37.984;2022-09-13T09:08:38;8.25;;;2.30;;
55931;SDS011;41837;55.700;37.984;2022-09-13T09:11:08;6.80;;;2.00;;
55931;SDS011;41837;55.700;37.984;2022-09-13T09:13:49;7.05;;;2.10;;
55931;SDS011;41837;55.700;37.984;2022-09-13T09:18:46;8.20;;;2.75;;
55931;SDS011;41837;55.700;37.984;2022-09-13T09:21:17;7.10;;;2.88;;
55931;SDS011;41837;55.700;37.984;2022-09-13T09:23:48;13.15;;;2.45;;
55931;SDS011;41837;55.700;37.984;2022-09-13T09:26:20;7.75;;;1.88;;
55931;SDS011;41837;55.700;37.984;2022-09-13T09:28:58;11.48;;;2.05;;
55931;SDS011;41837;55.700;37.984;2022-09-13T09:31:32;18.52;;;1.83;;
55931;SDS011;41837;55.700;37.984;2022-09-13T09:34:23;6.25;;;1.40;;
55931;SDS011;41837;55.700;37.984;2022-09-13T09:36:55;3.30;;;1.38;;
55931;SDS011;41837;55.700;37.984;2022-09-13T09:39:23;5.30;;;0.90;;
55931;SDS011;41837;55.700;37.984;2022-09-13T09:41:52;6.35;;;1.20;;
55931;SDS011;41837;55.700;37.984;2022-09-13T09:44:22;2.42;;;1.17;;
55931;SDS011;41837;55.700;37.984;2022-09-13T09:47:01;16.83;;;1.63;;
55931;SDS011;41837;55.700;37.984;2022-09-13T09:49:34;4.57;;;1.30;;
55931;SDS011;41837;55.700;37.984;2022-09-13T09:52:22;8.10;;;1.48;;
55931;SDS011;41837;55.700;37.984;2022-09-13T09:54:48;8.68;;;1.50;;
55931;SDS011;41837;55.700;37.984;2022-09-13T09:57:15;4.57;;;1.45;;
55931;SDS011;41837;55.700;37.984;2022-09-13T09:59:45;6.20;;;1.52;;
55931;SDS011;41837;55.700;37.984;2022-09-13T10:02:13;9.68;;;1.40;;
55931;SDS011;41837;55.700;37.984;2022-09-13T10:04:40;6.60;;;1.85;;
55931;SDS011;41837;55.700;37.984;2022-09-13T10:07:30;7.40;;;1.73;;
55931;SDS011;41837;55.700;37.984;2022-09-13T10:09:56;5.25;;;1.42;;
55931;SDS011;41837;55.700;37.984;2022-09-13T10:12:26;13.32;;;2.60;;
55931;SDS011;41837;55.700;37.984;2022-09-13T10:14:53;5.03;;;1.83;;
55931;SDS011;41837;55.700;37.984;2022-09-13T10:17:29;7.55;;;1.48;;
55931;SDS011;41837;55.700;37.984;2022-09-13T10:19:55;8.93;;;1.60;;
55931;SDS011;41837;55.700;37.984;2022-09-13T10:22:30;6.45;;;1.80;;
55931;SDS011;41837;55.700;37.984;2022-09-13T10:27:46;4.22;;;1.60;;
55931;SDS011;41837;55.700;37.984;2022-09-13T10:30:35;2.05;;;1.27;;
55931;SDS011;41837;55.700;37.984;2022-09-13T10:33:02;3.00;;;1.35;;
55931;SDS011;41837;55.700;37.984;2022-09-13T10:35:28;8.73;;;2.45;;
55931;SDS011;41837;55.700;37.984;2022-09-13T10:37:55;4.75;;;1.80;;
55931;SDS011;41837;55.700;37.984;2022-09-13T10:40:31;7.65;;;2.40;;
55931;SDS011;41837;55.700;37.984;2022-09-13T10:43:04;14.82;;;3.13;;
55931;SDS011;41837;55.700;37.984;2022-09-13T10:45:34;13.75;;;1.65;;
55931;SDS011;41837;55.700;37.984;2022-09-13T10:48:03;12.70;;;1.95;;
55931;SDS011;41837;55.700;37.984;2022-09-13T10:50:30;14.90;;;2.15;;
55931;SDS011;41837;55.700;37.984;2022-09-13T10:52:57;5.75;;;1.60;;
55931;SDS011;41837;55.700;37.984;2022-09-13T11:05:43;11.13;;;4.10;;
55931;SDS011;41837;55.700;37.984;2022-09-13T11:08:14;8.07;;;3.38;;
55931;SDS011;41837;55.700;37.984;2022-09-13T11:10:52;5.63;;;2.67;;
55931;SDS011;41837;55.700;37.984;2022-09-13T11:13:28;6.15;;;2.50;;
55931;SDS011;41837;55.700;37.984;2022-09-13T11:21:03;7.22;;;1.55;;
55931;SDS011;41837;55.700;37.984;2022-09-13T11:29:07;4.65;;;2.53;;
55931;SDS011;41837;55.700;37.984;2022-09-13T11:42:28;9.02;;;2.42;;
55931;SDS011;41837;55.700;37.984;2022-09-13T11:47:32;6.40;;;2.35;;
55931;SDS011;41837;55.700;37.984;2022-09-13T11:50:05;6.63;;;2.00;;
55931;SDS011;41837;55.700;37.984;2022-09-13T11:55:13;8.02;;;2.90;;
55931;SDS011;41837;55.700;37.984;2022-09-13T11:57:43;11.95;;;2.83;;
55931;SDS011;41837;55.700;37.984;2022-09-13T12:00:54;5.22;;;2.33;;
55931;SDS011;41837;55.700;37.984;2022-09-13T12:03:02;9.60;;;2.90;;
55931;SDS011;41837;55.700;37.984;2022-09-13T12:05:31;5.50;;;2.10;;
55931;SDS011;41837;55.700;37.984;2022-09-13T12:10:25;9.70;;;2.22;;
55931;SDS011;41837;55.700;37.984;2022-09-13T12:12:54;9.02;;;4.22;;
55931;SDS011;41837;55.700;37.984;2022-09-13T12:17:49;9.35;;;3.50;;
55931;SDS011;41837;55.700;37.984;2022-09-13T12:23:02;9.38;;;2.55;;
55931;SDS011;41837;55.700;37.984;2022-09-13T12:25:36;10.18;;;2.33;;
55931;SDS011;41837;55.700;37.984;2022-09-13T12:28:11;11.70;;;2.38;;
55931;SDS011;41837;55.700;37.984;2022-09-13T12:30:41;19.92;;;3.28;;
55931;SDS011;41837;55.700;37.984;2022-09-13T12:33:12;8.05;;;2.65;;
55931;SDS011;41837;55.700;37.984;2022-09-13T12:36:22;16.58;;;3.58;;
55931;SDS011;41837;55.700;37.984;2022-09-13T12:46:14;23.50;;;3.33;;
55931;SDS011;41837;55.700;37.984;2022-09-13T12:56:57;6.63;;;2.00;;
55931;SDS011;41837;55.700;37.984;2022-09-13T13:02:21;4.90;;;2.28;;
55931;SDS011;41837;55.700;37.984;2022-09-13T13:04:49;6.85;;;2.40;;
55931;SDS011;41837;55.700;37.984;2022-09-13T13:07:19;6.05;;;2.20;;
55931;SDS011;41837;55.700;37.984;2022-09-13T13:09:50;11.13;;;2.47;;
55931;SDS011;41837;55.700;37.984;2022-09-13T13:12:31;20.15;;;2.83;;
55931;SDS011;41837;55.700;37.984;2022-09-13T13:14:59;12.32;;;3.10;;
55931;SDS011;41837;55.700;37.984;2022-09-13T13:17:38;10.65;;;2.70;;
55931;SDS011;41837;55.700;37.984;2022-09-13T13:23:01;7.28;;;2.50;;
55931;SDS011;41837;55.700;37.984;2022-09-13T13:25:35;13.38;;;2.53;;
55931;SDS011;41837;55.700;37.984;2022-09-13T13:30:51;8.03;;;2.20;;
55931;SDS011;41837;55.700;37.984;2022-09-13T13:33:18;11.25;;;3.05;;
55931;SDS011;41837;55.700;37.984;2022-09-13T13:35:45;9.65;;;3.28;;
55931;SDS011;41837;55.700;37.984;2022-09-13T13:38:45;10.15;;;2.75;;
55931;SDS011;41837;55.700;37.984;2022-09-13T13:41:05;14.70;;;2.80;;
55931;SDS011;41837;55.700;37.984;2022-09-13T13:43:32;8.50;;;2.90;;
55931;SDS011;41837;55.700;37.984;2022-09-13T13:48:45;12.88;;;3.08;;
55931;SDS011;41837;55.700;37.984;2022-09-13T13:51:12;10.98;;;2.83;;
55931;SDS011;41837;55.700;37.984;2022-09-13T13:53:40;10.95;;;2.65;;
55931;SDS011;41837;55.700;37.984;2022-09-13T13:56:17;16.83;;;2.35;;
55931;SDS011;41837;55.700;37.984;2022-09-13T13:58:54;10.40;;;2.10;;
55931;SDS011;41837;55.700;37.984;2022-09-13T14:01:23;10.68;;;2.58;;
55931;SDS011;41837;55.700;37.984;2022-09-13T14:03:51;16.38;;;2.80;;
55931;SDS011;41837;55.700;37.984;2022-09-13T14:06:33;6.03;;;2.10;;
55931;SDS011;41837;55.700;37.984;2022-09-13T14:11:36;9.13;;;2.55;;
55931;SDS011;41837;55.700;37.984;2022-09-13T14:16:37;7.35;;;2.85;;
55931;SDS011;41837;55.700;37.984;2022-09-13T14:19:26;8.13;;;3.20;;
55931;SDS011;41837;55.700;37.984;2022-09-13T14:24:35;10.07;;;3.03;;
55931;SDS011;41837;55.700;37.984;2022-09-13T14:27:02;5.57;;;2.55;;
55931;SDS011;41837;55.700;37.984;2022-09-13T14:29:28;9.52;;;2.83;;
55931;SDS011;41837;55.700;37.984;2022-09-13T14:32:04;6.93;;;2.88;;
55931;SDS011;41837;55.700;37.984;2022-09-13T14:34:33;6.90;;;2.92;;
55931;SDS011;41837;55.700;37.984;2022-09-13T14:37:00;12.52;;;3.50;;
55931;SDS011;41837;55.700;37.984;2022-09-13T14:39:27;5.10;;;2.63;;
55931;SDS011;41837;55.700;37.984;2022-09-13T14:42:10;8.80;;;3.63;;
55931;SDS011;41837;55.700;37.984;2022-09-13T14:44:37;10.30;;;5.28;;
55931;SDS011;41837;55.700;37.984;2022-09-13T14:49:45;7.40;;;2.90;;
55931;SDS011;41837;55.700;37.984;2022-09-13T14:52:28;8.88;;;2.97;;
55931;SDS011;41837;55.700;37.984;2022-09-13T14:54:56;14.52;;;5.15;;
55931;SDS011;41837;55.700;37.984;2022-09-13T14:59:52;8.05;;;2.80;;
55931;SDS011;41837;55.700;37.984;2022-09-13T15:02:23;3.40;;;2.50;;
55931;SDS011;41837;55.700;37.984;2022-09-13T15:04:53;5.30;;;3.00;;
55931;SDS011;41837;55.700;37.984;2022-09-13T15:07:32;6.70;;;2.80;;
55931;SDS011;41837;55.700;37.984;2022-09-13T15:12:52;13.02;;;2.72;;
55931;SDS011;41837;55.700;37.984;2022-09-13T15:15:20;6.72;;;3.30;;
55931;SDS011;41837;55.700;37.984;2022-09-13T15:17:53;7.13;;;2.70;;
55931;SDS011;41837;55.700;37.984;2022-09-13T15:20:20;4.32;;;2.13;;
55931;SDS011;41837;55.700;37.984;2022-09-13T15:22:49;7.07;;;2.30;;
55931;SDS011;41837;55.700;37.984;2022-09-13T15:25:20;5.55;;;2.60;;
55931;SDS011;41837;55.700;37.984;2022-09-13T15:27:47;7.32;;;2.38;;
55931;SDS011;41837;55.700;37.984;2022-09-13T15:32:49;4.13;;;2.40;;
55931;SDS011;41837;55.700;37.984;2022-09-13T15:35:34;8.25;;;2.20;;
55931;SDS011;41837;55.700;37.984;2022-09-13T15:40:58;5.00;;;1.95;;
55931;SDS011;41837;55.700;37.984;2022-09-13T15:43:24;7.80;;;2.10;;
55931;SDS011;41837;55.700;37.984;2022-09-13T15:45:50;5.15;;;2.50;;
55931;SDS011;41837;55.700;37.984;2022-09-13T15:48:24;6.75;;;2.72;;
55931;SDS011;41837;55.700;37.984;2022-09-13T15:51:10;4.63;;;2.08;;
55931;SDS011;41837;55.700;37.984;2022-09-13T15:53:37;5.68;;;2.20;;
55931;SDS011;41837;55.700;37.984;2022-09-13T15:56:03;6.05;;;3.17;;
55931;SDS011;41837;55.700;37.984;2022-09-13T15:58:30;8.05;;;2.35;;
55931;SDS011;41837;55.700;37.984;2022-09-13T16:00:56;5.43;;;2.38;;
55931;SDS011;41837;55.700;37.984;2022-09-13T16:03:22;4.75;;;2.17;;
55931;SDS011;41837;55.700;37.984;2022-09-13T16:05:48;6.57;;;2.47;;
55931;SDS011;41837;55.700;37.984;2022-09-13T16:08:14;8.63;;;2.42;;
55931;SDS011;41837;55.700;37.984;2022-09-13T16:10:40;11.20;;;2.60;;
55931;SDS011;41837;55.700;37.984;2022-09-13T16:13:06;6.45;;;3.20;;
55931;SDS011;41837;55.700;37.984;2022-09-13T16:15:34;6.90;;;2.92;;
55931;SDS011;41837;55.700;37.984;2022-09-13T16:18:00;7.50;;;3.30;;
55931;SDS011;41837;55.700;37.984;2022-09-13T16:20:26;6.82;;;2.67;;
55931;SDS011;41837;55.700;37.984;2022-09-13T16:22:52;10.32;;;3.08;;
55931;SDS011;41837;55.700;37.984;2022-09-13T16:25:19;12.02;;;3.33;;
55931;SDS011;41837;55.700;37.984;2022-09-13T16:27:45;7.32;;;3.50;;
55931;SDS011;41837;55.700;37.984;2022-09-13T16:30:12;10.90;;;3.13;;
55931;SDS011;41837;55.700;37.984;2022-09-13T16:32:38;7.68;;;3.70;;
55931;SDS011;41837;55.700;37.984;2022-09-13T16:35:04;9.77;;;2.78;;
55931;SDS011;41837;55.700;37.984;2022-09-13T16:37:30;10.75;;;3.50;;
55931;SDS011;41837;55.700;37.984;2022-09-13T16:39:56;7.15;;;3.63;;
55931;SDS011;41837;55.700;37.984;2022-09-13T16:42:25;10.10;;;4.28;;
55931;SDS011;41837;55.700;37.984;2022-09-13T16:44:50;13.90;;;4.10;;
55931;SDS011;41837;55.700;37.984;2022-09-13T16:47:17;11.13;;;3.70;;
55931;SDS011;41837;55.700;37.984;2022-09-13T16:49:43;8.80;;;3.58;;
55931;SDS011;41837;55.700;37.984;2022-09-13T16:52:09;7.57;;;3.40;;
55931;SDS011;41837;55.700;37.984;2022-09-13T16:54:35;6.28;;;3.75;;
55931;SDS011;41837;55.700;37.984;2022-09-13T16:57:03;8.40;;;4.05;;
55931;SDS011;41837;55.700;37.984;2022-09-13T16:59:32;15.32;;;4.00;;
55931;SDS011;41837;55.700;37.984;2022-09-13T17:01:58;8.85;;;3.53;;
55931;SDS011;41837;55.700;37.984;2022-09-13T17:04:24;8.40;;;3.45;;
55931;SDS011;41837;55.700;37.984;2022-09-13T17:06:51;9.02;;;4.15;;
55931;SDS011;41837;55.700;37.984;2022-09-13T17:09:16;5.63;;;3.55;;
55931;SDS011;41837;55.700;37.984;2022-09-13T17:11:43;9.75;;;4.32;;
55931;SDS011;41837;55.700;37.984;2022-09-13T17:14:11;8.40;;;4.05;;
55931;SDS011;41837;55.700;37.984;2022-09-13T17:16:40;5.85;;;3.90;;
55931;SDS011;41837;55.700;37.984;2022-09-13T17:19:09;7.18;;;4.35;;